sensor_id;sensor_type;location;lat;lon;timestamp;P1;durP1;ratioP1;P2;durP2;ratioP2
69856;SDS011;57147;53.582;10.112;2022-11-23T00:01:51;27.35;;;12.85;;
69856;SDS011;57147;53.582;10.112;2022-11-23T00:06:51;28.88;;;13.80;;
69856;SDS011;57147;53.582;10.112;2022-11-23T00:11:52;29.58;;;13.75;;
69856;SDS011;57147;53.582;10.112;2022-11-23T00:16:55;34.30;;;16.10;;
69856;SDS011;57147;53.582;10.112;2022-11-23T00:21:55;27.02;;;13.45;;
69856;SDS011;57147;53.582;10.112;2022-11-23T00:26:56;32.33;;;14.45;;
69856;SDS011;57147;53.582;10.112;2022-11-23T00:31:59;28.65;;;12.88;;
69856;SDS011;57147;53.582;10.112;2022-11-23T00:37:00;31.08;;;13.90;;
69856;SDS011;57147;53.582;10.112;2022-11-23T00:42:00;24.88;;;13.35;;
69856;SDS011;57147;53.582;10.112;2022-11-23T00:47:03;26.73;;;12.93;;
69856;SDS011;57147;53.582;10.112;2022-11-23T00:52:04;29.65;;;13.23;;
69856;SDS011;57147;53.582;10.112;2022-11-23T00:57:05;26.40;;;12.43;;
69856;SDS011;57147;53.582;10.112;2022-11-23T01:02:08;27.05;;;13.30;;
69856;SDS011;57147;53.582;10.112;2022-11-23T01:07:08;30.10;;;14.27;;
69856;SDS011;57147;53.582;10.112;2022-11-23T01:12:09;27.80;;;13.38;;
69856;SDS011;57147;53.582;10.112;2022-11-23T01:17:12;27.75;;;12.57;;
69856;SDS011;57147;53.582;10.112;2022-11-23T01:22:13;24.05;;;12.27;;
69856;SDS011;57147;53.582;10.112;2022-11-23T01:27:13;26.48;;;12.13;;
69856;SDS011;57147;53.582;10.112;2022-11-23T01:32:16;24.85;;;12.80;;
69856;SDS011;57147;53.582;10.112;2022-11-23T01:37:17;25.42;;;14.70;;
69856;SDS011;57147;53.582;10.112;2022-11-23T01:42:17;24.85;;;13.15;;
69856;SDS011;57147;53.582;10.112;2022-11-23T01:47:20;27.65;;;13.27;;
69856;SDS011;57147;53.582;10.112;2022-11-23T01:52:22;26.85;;;13.13;;
69856;SDS011;57147;53.582;10.112;2022-11-23T01:57:25;23.15;;;12.15;;
69856;SDS011;57147;53.582;10.112;2022-11-23T02:02:31;23.55;;;11.30;;
69856;SDS011;57147;53.582;10.112;2022-11-23T02:07:33;25.58;;;11.98;;
69856;SDS011;57147;53.582;10.112;2022-11-23T02:12:34;21.70;;;12.43;;
69856;SDS011;57147;53.582;10.112;2022-11-23T02:17:37;26.75;;;12.70;;
69856;SDS011;57147;53.582;10.112;2022-11-23T02:22:39;23.25;;;12.00;;
69856;SDS011;57147;53.582;10.112;2022-11-23T02:27:49;22.60;;;11.57;;
69856;SDS011;57147;53.582;10.112;2022-11-23T02:32:51;24.10;;;12.10;;
69856;SDS011;57147;53.582;10.112;2022-11-23T02:37:51;22.13;;;11.68;;
69856;SDS011;57147;53.582;10.112;2022-11-23T02:42:55;23.92;;;11.48;;
69856;SDS011;57147;53.582;10.112;2022-11-23T02:47:56;22.08;;;11.05;;
69856;SDS011;57147;53.582;10.112;2022-11-23T02:52:56;25.10;;;12.20;;
69856;SDS011;57147;53.582;10.112;2022-11-23T02:58:00;23.23;;;12.07;;
69856;SDS011;57147;53.582;10.112;2022-11-23T03:03:00;23.60;;;11.43;;
69856;SDS011;57147;53.582;10.112;2022-11-23T03:08:02;24.63;;;11.27;;
69856;SDS011;57147;53.582;10.112;2022-11-23T03:13:05;25.60;;;12.07;;
69856;SDS011;57147;53.582;10.112;2022-11-23T03:18:06;24.83;;;12.57;;
69856;SDS011;57147;53.582;10.112;2022-11-23T03:23:06;24.35;;;11.90;;
69856;SDS011;57147;53.582;10.112;2022-11-23T03:28:09;24.27;;;12.88;;
69856;SDS011;57147;53.582;10.112;2022-11-23T03:33:10;25.80;;;12.35;;
69856;SDS011;57147;53.582;10.112;2022-11-23T03:38:11;20.85;;;10.93;;
69856;SDS011;57147;53.582;10.112;2022-11-23T03:43:14;22.60;;;10.93;;
69856;SDS011;57147;53.582;10.112;2022-11-23T03:48:15;21.98;;;11.00;;
69856;SDS011;57147;53.582;10.112;2022-11-23T03:53:16;23.52;;;11.40;;
69856;SDS011;57147;53.582;10.112;2022-11-23T03:58:19;23.00;;;11.45;;
69856;SDS011;57147;53.582;10.112;2022-11-23T04:03:19;25.42;;;11.98;;
69856;SDS011;57147;53.582;10.112;2022-11-23T04:08:20;23.95;;;12.48;;
69856;SDS011;57147;53.582;10.112;2022-11-23T04:13:24;21.05;;;12.77;;
69856;SDS011;57147;53.582;10.112;2022-11-23T04:18:25;21.55;;;11.52;;
69856;SDS011;57147;53.582;10.112;2022-11-23T04:23:25;22.63;;;11.38;;
69856;SDS011;57147;53.582;10.112;2022-11-23T04:28:28;23.50;;;11.23;;
69856;SDS011;57147;53.582;10.112;2022-11-23T04:33:29;23.10;;;12.30;;
69856;SDS011;57147;53.582;10.112;2022-11-23T04:38:30;22.17;;;11.05;;
69856;SDS011;57147;53.582;10.112;2022-11-23T04:43:33;18.55;;;10.80;;
69856;SDS011;57147;53.582;10.112;2022-11-23T04:48:33;21.02;;;10.70;;
69856;SDS011;57147;53.582;10.112;2022-11-23T04:53:34;19.95;;;10.68;;
69856;SDS011;57147;53.582;10.112;2022-11-23T04:58:37;21.92;;;13.27;;
69856;SDS011;57147;53.582;10.112;2022-11-23T05:03:38;20.23;;;11.38;;
69856;SDS011;57147;53.582;10.112;2022-11-23T05:08:38;19.15;;;10.32;;
69856;SDS011;57147;53.582;10.112;2022-11-23T05:13:41;16.00;;;8.23;;
69856;SDS011;57147;53.582;10.112;2022-11-23T05:18:42;20.02;;;9.68;;
69856;SDS011;57147;53.582;10.112;2022-11-23T05:23:46;16.83;;;9.48;;
69856;SDS011;57147;53.582;10.112;2022-11-23T05:28:49;23.77;;;10.43;;
69856;SDS011;57147;53.582;10.112;2022-11-23T05:33:49;21.15;;;11.30;;
69856;SDS011;57147;53.582;10.112;2022-11-23T05:38:50;20.05;;;10.13;;
69856;SDS011;57147;53.582;10.112;2022-11-23T05:43:53;20.35;;;9.85;;
69856;SDS011;57147;53.582;10.112;2022-11-23T05:48:54;20.20;;;10.20;;
69856;SDS011;57147;53.582;10.112;2022-11-23T05:53:54;20.30;;;10.45;;
69856;SDS011;57147;53.582;10.112;2022-11-23T05:58:57;21.20;;;10.45;;
69856;SDS011;57147;53.582;10.112;2022-11-23T06:03:58;20.27;;;9.75;;
69856;SDS011;57147;53.582;10.112;2022-11-23T06:08:59;22.92;;;13.02;;
69856;SDS011;57147;53.582;10.112;2022-11-23T06:14:02;20.85;;;11.10;;
69856;SDS011;57147;53.582;10.112;2022-11-23T06:19:02;20.83;;;9.98;;
69856;SDS011;57147;53.582;10.112;2022-11-23T06:24:03;20.70;;;10.88;;
69856;SDS011;57147;53.582;10.112;2022-11-23T06:29:07;19.15;;;10.05;;
69856;SDS011;57147;53.582;10.112;2022-11-23T06:34:08;24.08;;;12.73;;
69856;SDS011;57147;53.582;10.112;2022-11-23T06:39:09;20.27;;;10.35;;
69856;SDS011;57147;53.582;10.112;2022-11-23T06:44:12;19.02;;;10.68;;
69856;SDS011;57147;53.582;10.112;2022-11-23T06:49:12;21.30;;;10.57;;
69856;SDS011;57147;53.582;10.112;2022-11-23T06:54:13;21.63;;;11.05;;
69856;SDS011;57147;53.582;10.112;2022-11-23T06:59:16;18.52;;;10.00;;
69856;SDS011;57147;53.582;10.112;2022-11-23T07:04:17;20.88;;;8.93;;
69856;SDS011;57147;53.582;10.112;2022-11-23T07:09:17;22.42;;;12.07;;
69856;SDS011;57147;53.582;10.112;2022-11-23T07:14:20;15.75;;;8.82;;
69856;SDS011;57147;53.582;10.112;2022-11-23T07:19:21;17.38;;;7.95;;
69856;SDS011;57147;53.582;10.112;2022-11-23T07:24:21;17.02;;;8.73;;
69856;SDS011;57147;53.582;10.112;2022-11-23T07:29:25;19.15;;;10.40;;
69856;SDS011;57147;53.582;10.112;2022-11-23T07:34:26;18.25;;;8.45;;
69856;SDS011;57147;53.582;10.112;2022-11-23T07:39:26;17.13;;;8.90;;
69856;SDS011;57147;53.582;10.112;2022-11-23T07:44:30;16.48;;;8.68;;
69856;SDS011;57147;53.582;10.112;2022-11-23T07:49:30;13.60;;;7.80;;
69856;SDS011;57147;53.582;10.112;2022-11-23T07:54:31;16.65;;;8.45;;
69856;SDS011;57147;53.582;10.112;2022-11-23T07:59:34;16.13;;;8.35;;
69856;SDS011;57147;53.582;10.112;2022-11-23T08:04:35;17.75;;;8.40;;
69856;SDS011;57147;53.582;10.112;2022-11-23T08:09:36;17.73;;;7.35;;
69856;SDS011;57147;53.582;10.112;2022-11-23T08:14:39;14.32;;;8.23;;
69856;SDS011;57147;53.582;10.112;2022-11-23T08:19:40;15.02;;;7.50;;
69856;SDS011;57147;53.582;10.112;2022-11-23T08:24:40;12.70;;;6.15;;
69856;SDS011;57147;53.582;10.112;2022-11-23T08:29:44;14.52;;;6.97;;
69856;SDS011;57147;53.582;10.112;2022-11-23T08:34:44;12.18;;;6.30;;
69856;SDS011;57147;53.582;10.112;2022-11-23T08:39:45;13.15;;;7.45;;
69856;SDS011;57147;53.582;10.112;2022-11-23T08:44:49;13.50;;;6.13;;
69856;SDS011;57147;53.582;10.112;2022-11-23T08:49:50;13.70;;;7.20;;
69856;SDS011;57147;53.582;10.112;2022-11-23T08:54:50;12.07;;;7.60;;
69856;SDS011;57147;53.582;10.112;2022-11-23T08:59:53;11.07;;;6.18;;
69856;SDS011;57147;53.582;10.112;2022-11-23T09:04:54;11.05;;;6.00;;
69856;SDS011;57147;53.582;10.112;2022-11-23T09:09:55;10.88;;;5.30;;
69856;SDS011;57147;53.582;10.112;2022-11-23T09:14:58;9.77;;;6.38;;
69856;SDS011;57147;53.582;10.112;2022-11-23T09:19:58;11.13;;;7.38;;
69856;SDS011;57147;53.582;10.112;2022-11-23T09:24:59;11.30;;;5.38;;
69856;SDS011;57147;53.582;10.112;2022-11-23T09:30:02;9.45;;;5.60;;
69856;SDS011;57147;53.582;10.112;2022-11-23T09:35:04;14.00;;;5.78;;
69856;SDS011;57147;53.582;10.112;2022-11-23T09:40:06;10.90;;;4.97;;
69856;SDS011;57147;53.582;10.112;2022-11-23T09:45:15;10.40;;;5.70;;
69856;SDS011;57147;53.582;10.112;2022-11-23T09:50:20;10.60;;;5.35;;
69856;SDS011;57147;53.582;10.112;2022-11-23T09:55:28;10.57;;;5.45;;
69856;SDS011;57147;53.582;10.112;2022-11-23T10:00:40;9.93;;;5.32;;
69856;SDS011;57147;53.582;10.112;2022-11-23T10:05:47;12.75;;;6.90;;
69856;SDS011;57147;53.582;10.112;2022-11-23T10:16:07;9.90;;;5.82;;
69856;SDS011;57147;53.582;10.112;2022-11-23T10:21:22;10.07;;;5.50;;
69856;SDS011;57147;53.582;10.112;2022-11-23T10:26:30;9.98;;;5.00;;
69856;SDS011;57147;53.582;10.112;2022-11-23T10:31:35;9.00;;;5.75;;
69856;SDS011;57147;53.582;10.112;2022-11-23T10:36:36;8.43;;;4.55;;
69856;SDS011;57147;53.582;10.112;2022-11-23T10:41:38;13.07;;;6.60;;
69856;SDS011;57147;53.582;10.112;2022-11-23T10:46:41;13.98;;;5.47;;
69856;SDS011;57147;53.582;10.112;2022-11-23T10:51:47;10.32;;;4.95;;
69856;SDS011;57147;53.582;10.112;2022-11-23T10:56:53;10.23;;;6.57;;
69856;SDS011;57147;53.582;10.112;2022-11-23T11:02:01;14.63;;;4.80;;
69856;SDS011;57147;53.582;10.112;2022-11-23T11:07:20;9.38;;;5.68;;
69856;SDS011;57147;53.582;10.112;2022-11-23T11:12:23;8.95;;;3.70;;
69856;SDS011;57147;53.582;10.112;2022-11-23T11:17:27;7.88;;;4.45;;
69856;SDS011;57147;53.582;10.112;2022-11-23T11:22:32;8.93;;;4.40;;
69856;SDS011;57147;53.582;10.112;2022-11-23T11:27:34;9.82;;;4.65;;
69856;SDS011;57147;53.582;10.112;2022-11-23T11:32:41;8.70;;;4.38;;
69856;SDS011;57147;53.582;10.112;2022-11-23T11:37:47;11.00;;;5.13;;
69856;SDS011;57147;53.582;10.112;2022-11-23T11:42:52;9.48;;;4.85;;
69856;SDS011;57147;53.582;10.112;2022-11-23T11:47:59;9.98;;;5.28;;
69856;SDS011;57147;53.582;10.112;2022-11-23T11:53:04;9.57;;;4.25;;
69856;SDS011;57147;53.582;10.112;2022-11-23T11:58:09;8.05;;;4.72;;
69856;SDS011;57147;53.582;10.112;2022-11-23T12:03:17;11.77;;;5.30;;
69856;SDS011;57147;53.582;10.112;2022-11-23T12:08:25;11.25;;;5.32;;
69856;SDS011;57147;53.582;10.112;2022-11-23T12:13:33;9.77;;;6.05;;
69856;SDS011;57147;53.582;10.112;2022-11-23T12:23:53;7.78;;;3.75;;
69856;SDS011;57147;53.582;10.112;2022-11-23T12:29:06;8.52;;;3.95;;
69856;SDS011;57147;53.582;10.112;2022-11-23T12:34:33;9.40;;;5.28;;
69856;SDS011;57147;53.582;10.112;2022-11-23T12:45:28;11.15;;;4.10;;
69856;SDS011;57147;53.582;10.112;2022-11-23T12:50:51;5.80;;;3.03;;
69856;SDS011;57147;53.582;10.112;2022-11-23T12:55:59;8.70;;;5.20;;
69856;SDS011;57147;53.582;10.112;2022-11-23T13:01:09;6.30;;;3.38;;
69856;SDS011;57147;53.582;10.112;2022-11-23T13:12:00;8.07;;;2.63;;
69856;SDS011;57147;53.582;10.112;2022-11-23T13:17:19;4.45;;;2.78;;
69856;SDS011;57147;53.582;10.112;2022-11-23T13:22:32;9.02;;;4.65;;
69856;SDS011;57147;53.582;10.112;2022-11-23T13:27:41;8.02;;;3.88;;
69856;SDS011;57147;53.582;10.112;2022-11-23T13:32:50;12.20;;;3.60;;
69856;SDS011;57147;53.582;10.112;2022-11-23T13:43:35;9.05;;;5.35;;
69856;SDS011;57147;53.582;10.112;2022-11-23T13:48:40;8.18;;;2.63;;
69856;SDS011;57147;53.582;10.112;2022-11-23T13:53:42;8.13;;;3.58;;
69856;SDS011;57147;53.582;10.112;2022-11-23T13:58:55;9.05;;;3.15;;
69856;SDS011;57147;53.582;10.112;2022-11-23T14:04:17;7.95;;;3.60;;
69856;SDS011;57147;53.582;10.112;2022-11-23T14:09:20;7.47;;;5.40;;
69856;SDS011;57147;53.582;10.112;2022-11-23T14:14:28;6.32;;;2.83;;
69856;SDS011;57147;53.582;10.112;2022-11-23T14:19:33;9.10;;;4.13;;
69856;SDS011;57147;53.582;10.112;2022-11-23T14:24:44;7.55;;;2.42;;
69856;SDS011;57147;53.582;10.112;2022-11-23T14:30:11;7.18;;;2.70;;
69856;SDS011;57147;53.582;10.112;2022-11-23T14:35:22;8.43;;;2.40;;
69856;SDS011;57147;53.582;10.112;2022-11-23T14:40:29;6.63;;;3.17;;
69856;SDS011;57147;53.582;10.112;2022-11-23T14:45:39;26.48;;;4.13;;
69856;SDS011;57147;53.582;10.112;2022-11-23T14:50:40;9.90;;;5.00;;
69856;SDS011;57147;53.582;10.112;2022-11-23T14:55:41;16.17;;;4.32;;
69856;SDS011;57147;53.582;10.112;2022-11-23T15:00:48;12.55;;;3.65;;
69856;SDS011;57147;53.582;10.112;2022-11-23T15:05:50;9.57;;;4.10;;
69856;SDS011;57147;53.582;10.112;2022-11-23T15:10:56;9.45;;;4.03;;
69856;SDS011;57147;53.582;10.112;2022-11-23T15:16:04;6.15;;;3.80;;
69856;SDS011;57147;53.582;10.112;2022-11-23T15:21:05;11.80;;;4.70;;
69856;SDS011;57147;53.582;10.112;2022-11-23T15:31:27;7.95;;;4.05;;
69856;SDS011;57147;53.582;10.112;2022-11-23T15:36:29;9.02;;;4.68;;
69856;SDS011;57147;53.582;10.112;2022-11-23T15:41:32;8.75;;;4.88;;
69856;SDS011;57147;53.582;10.112;2022-11-23T15:46:37;13.15;;;7.82;;
69856;SDS011;57147;53.582;10.112;2022-11-23T15:51:39;11.07;;;5.07;;
69856;SDS011;57147;53.582;10.112;2022-11-23T15:56:42;9.00;;;5.43;;
69856;SDS011;57147;53.582;10.112;2022-11-23T16:01:48;10.10;;;6.22;;
69856;SDS011;57147;53.582;10.112;2022-11-23T16:06:48;12.45;;;4.97;;
69856;SDS011;57147;53.582;10.112;2022-11-23T16:11:49;10.10;;;5.72;;
69856;SDS011;57147;53.582;10.112;2022-11-23T16:17:00;9.95;;;6.35;;
69856;SDS011;57147;53.582;10.112;2022-11-23T16:22:04;9.68;;;5.22;;
69856;SDS011;57147;53.582;10.112;2022-11-23T16:27:13;13.57;;;5.95;;
69856;SDS011;57147;53.582;10.112;2022-11-23T16:32:22;9.52;;;4.63;;
69856;SDS011;57147;53.582;10.112;2022-11-23T16:37:25;10.38;;;5.63;;
69856;SDS011;57147;53.582;10.112;2022-11-23T16:42:25;11.07;;;6.03;;
69856;SDS011;57147;53.582;10.112;2022-11-23T16:47:28;11.55;;;5.65;;
69856;SDS011;57147;53.582;10.112;2022-11-23T16:52:29;10.13;;;5.25;;
69856;SDS011;57147;53.582;10.112;2022-11-23T16:57:30;11.32;;;5.93;;
69856;SDS011;57147;53.582;10.112;2022-11-23T17:02:36;13.65;;;6.80;;
69856;SDS011;57147;53.582;10.112;2022-11-23T17:07:36;10.93;;;5.75;;
69856;SDS011;57147;53.582;10.112;2022-11-23T17:12:37;10.23;;;5.88;;
69856;SDS011;57147;53.582;10.112;2022-11-23T17:17:41;10.02;;;4.97;;
69856;SDS011;57147;53.582;10.112;2022-11-23T17:22:42;14.80;;;7.40;;
69856;SDS011;57147;53.582;10.112;2022-11-23T17:27:43;12.15;;;6.28;;
69856;SDS011;57147;53.582;10.112;2022-11-23T17:32:47;10.68;;;5.38;;
69856;SDS011;57147;53.582;10.112;2022-11-23T17:37:48;11.65;;;5.25;;
69856;SDS011;57147;53.582;10.112;2022-11-23T17:42:48;12.02;;;6.85;;
69856;SDS011;57147;53.582;10.112;2022-11-23T17:47:51;12.55;;;6.47;;
69856;SDS011;57147;53.582;10.112;2022-11-23T17:52:52;10.48;;;4.97;;
69856;SDS011;57147;53.582;10.112;2022-11-23T17:57:53;7.93;;;5.07;;
69856;SDS011;57147;53.582;10.112;2022-11-23T18:02:56;12.20;;;6.22;;
69856;SDS011;57147;53.582;10.112;2022-11-23T18:07:57;11.57;;;8.20;;
69856;SDS011;57147;53.582;10.112;2022-11-23T18:12:57;10.57;;;6.28;;
69856;SDS011;57147;53.582;10.112;2022-11-23T18:18:01;15.88;;;8.73;;
69856;SDS011;57147;53.582;10.112;2022-11-23T18:23:01;10.85;;;6.30;;
69856;SDS011;57147;53.582;10.112;2022-11-23T18:28:02;10.68;;;7.10;;
69856;SDS011;57147;53.582;10.112;2022-11-23T18:33:05;11.48;;;7.20;;
69856;SDS011;57147;53.582;10.112;2022-11-23T18:38:06;11.45;;;6.88;;
69856;SDS011;57147;53.582;10.112;2022-11-23T18:43:06;10.43;;;6.53;;
69856;SDS011;57147;53.582;10.112;2022-11-23T18:48:10;13.73;;;6.65;;
69856;SDS011;57147;53.582;10.112;2022-11-23T18:53:10;10.80;;;6.90;;
69856;SDS011;57147;53.582;10.112;2022-11-23T18:58:11;11.73;;;5.72;;
69856;SDS011;57147;53.582;10.112;2022-11-23T19:03:14;9.38;;;5.22;;
69856;SDS011;57147;53.582;10.112;2022-11-23T19:08:15;13.23;;;5.60;;
69856;SDS011;57147;53.582;10.112;2022-11-23T19:13:15;10.18;;;5.82;;
69856;SDS011;57147;53.582;10.112;2022-11-23T19:18:19;9.77;;;5.57;;
69856;SDS011;57147;53.582;10.112;2022-11-23T19:23:19;10.48;;;6.15;;
69856;SDS011;57147;53.582;10.112;2022-11-23T19:28:20;12.32;;;7.20;;
69856;SDS011;57147;53.582;10.112;2022-11-23T19:33:23;13.45;;;5.43;;
69856;SDS011;57147;53.582;10.112;2022-11-23T19:38:24;10.93;;;5.78;;
69856;SDS011;57147;53.582;10.112;2022-11-23T19:43:24;12.45;;;6.20;;
69856;SDS011;57147;53.582;10.112;2022-11-23T19:48:27;16.17;;;6.05;;
69856;SDS011;57147;53.582;10.112;2022-11-23T19:53:29;17.35;;;9.43;;
69856;SDS011;57147;53.582;10.112;2022-11-23T19:58:31;9.65;;;5.63;;
69856;SDS011;57147;53.582;10.112;2022-11-23T20:03:35;13.13;;;8.75;;
69856;SDS011;57147;53.582;10.112;2022-11-23T20:08:38;15.10;;;7.60;;
69856;SDS011;57147;53.582;10.112;2022-11-23T20:13:38;20.85;;;9.68;;
69856;SDS011;57147;53.582;10.112;2022-11-23T20:18:43;16.30;;;7.43;;
69856;SDS011;57147;53.582;10.112;2022-11-23T20:23:44;10.18;;;6.30;;
69856;SDS011;57147;53.582;10.112;2022-11-23T20:28:49;9.45;;;5.22;;
69856;SDS011;57147;53.582;10.112;2022-11-23T20:33:53;10.98;;;5.32;;
69856;SDS011;57147;53.582;10.112;2022-11-23T20:38:54;13.98;;;7.18;;
69856;SDS011;57147;53.582;10.112;2022-11-23T20:43:55;18.25;;;10.95;;
69856;SDS011;57147;53.582;10.112;2022-11-23T20:48:59;15.35;;;8.23;;
69856;SDS011;57147;53.582;10.112;2022-11-23T20:54:00;15.88;;;7.18;;
69856;SDS011;57147;53.582;10.112;2022-11-23T20:59:01;17.63;;;7.03;;
69856;SDS011;57147;53.582;10.112;2022-11-23T21:04:04;10.77;;;5.53;;
69856;SDS011;57147;53.582;10.112;2022-11-23T21:09:05;11.00;;;5.63;;
69856;SDS011;57147;53.582;10.112;2022-11-23T21:14:07;14.38;;;7.70;;
69856;SDS011;57147;53.582;10.112;2022-11-23T21:19:13;9.38;;;5.30;;
69856;SDS011;57147;53.582;10.112;2022-11-23T21:24:14;13.90;;;7.38;;
69856;SDS011;57147;53.582;10.112;2022-11-23T21:29:14;15.90;;;7.18;;
69856;SDS011;57147;53.582;10.112;2022-11-23T21:34:18;10.32;;;6.82;;
69856;SDS011;57147;53.582;10.112;2022-11-23T21:39:20;13.20;;;5.88;;
69856;SDS011;57147;53.582;10.112;2022-11-23T21:44:21;13.93;;;8.02;;
69856;SDS011;57147;53.582;10.112;2022-11-23T21:49:25;11.32;;;6.25;;
69856;SDS011;57147;53.582;10.112;2022-11-23T21:54:25;13.68;;;7.80;;
69856;SDS011;57147;53.582;10.112;2022-11-23T21:59:26;12.52;;;6.72;;
69856;SDS011;57147;53.582;10.112;2022-11-23T22:04:29;9.90;;;5.88;;
69856;SDS011;57147;53.582;10.112;2022-11-23T22:09:30;9.85;;;5.50;;
69856;SDS011;57147;53.582;10.112;2022-11-23T22:14:30;8.57;;;4.97;;
69856;SDS011;57147;53.582;10.112;2022-11-23T22:19:34;7.28;;;4.30;;
69856;SDS011;57147;53.582;10.112;2022-11-23T22:24:35;10.00;;;6.35;;
69856;SDS011;57147;53.582;10.112;2022-11-23T22:29:35;9.55;;;5.38;;
69856;SDS011;57147;53.582;10.112;2022-11-23T22:34:38;10.30;;;5.00;;
69856;SDS011;57147;53.582;10.112;2022-11-23T22:39:39;14.38;;;7.45;;
69856;SDS011;57147;53.582;10.112;2022-11-23T22:44:39;6.72;;;4.32;;
69856;SDS011;57147;53.582;10.112;2022-11-23T22:49:43;8.68;;;3.67;;
69856;SDS011;57147;53.582;10.112;2022-11-23T22:54:43;8.25;;;4.45;;
69856;SDS011;57147;53.582;10.112;2022-11-23T22:59:44;9.13;;;3.97;;
69856;SDS011;57147;53.582;10.112;2022-11-23T23:04:47;7.43;;;4.65;;
69856;SDS011;57147;53.582;10.112;2022-11-23T23:09:47;7.90;;;4.68;;
69856;SDS011;57147;53.582;10.112;2022-11-23T23:14:48;7.50;;;3.75;;
69856;SDS011;57147;53.582;10.112;2022-11-23T23:19:51;6.57;;;4.55;;
69856;SDS011;57147;53.582;10.112;2022-11-23T23:24:52;9.32;;;4.35;;
69856;SDS011;57147;53.582;10.112;2022-11-23T23:29:58;9.70;;;4.32;;
69856;SDS011;57147;53.582;10.112;2022-11-23T23:35:01;16.55;;;8.27;;
69856;SDS011;57147;53.582;10.112;2022-11-23T23:40:03;7.78;;;5.13;;
69856;SDS011;57147;53.582;10.112;2022-11-23T23:45:04;7.43;;;4.38;;
69856;SDS011;57147;53.582;10.112;2022-11-23T23:50:11;7.95;;;4.10;;
69856;SDS011;57147;53.582;10.112;2022-11-23T23:55:11;7.35;;;4.85;;
